Time;durP1;ratioP1;P1;durP2;ratioP2;P2;SDS_P1;SDS_P2;PMS_P1;PMS_P2;Temp;Humidity;BMP_temperature;BMP_pressure;BME280_temperature;BME280_humidity;BME280_pressure;Samples;Min_cycle;Max_cycle;Signal;HPM_P1;HPM_P2
2023/11/27 00:01:08;;;;;;;26.33;14.35;;;6.30;99.90;;;;;;4978800;28;20038;-76
2023/11/27 00:03:35;;;;;;;30.85;16.23;;;6.20;99.90;;;;;;4977800;28;20486;-76
2023/11/27 00:06:00;;;;;;;30.23;16.33;;;6.20;99.90;;;;;;4974661;28;20046;-76
2023/11/27 00:08:26;;;;;;;27.05;16.38;;;6.30;99.90;;;;;;4974433;28;20088;-75
2023/11/27 00:10:51;;;;;;;29.63;15.65;;;6.20;99.90;;;;;;4974256;28;20058;-76
2023/11/27 00:13:17;;;;;;;25.80;15.60;;;6.40;99.90;;;;;;4974355;28;20046;-75
2023/11/27 00:15:43;;;;;;;29.13;16.45;;;6.30;99.90;;;;;;4975433;28;20477;-75
2023/11/27 00:18:08;;;;;;;28.95;15.70;;;6.20;99.90;;;;;;4974286;28;20039;-75
2023/11/27 00:20:34;;;;;;;33.28;16.60;;;6.30;99.90;;;;;;4974121;28;20423;-75
2023/11/27 00:22:59;;;;;;;28.48;16.98;;;6.20;99.90;;;;;;4974163;28;20039;-75
2023/11/27 00:25:25;;;;;;;34.08;17.90;;;6.10;99.90;;;;;;4975254;28;20051;-75
2023/11/27 00:27:51;;;;;;;29.40;16.08;;;6.20;99.90;;;;;;4958272;28;20042;-76
2023/11/27 00:30:17;;;;;;;31.75;16.50;;;6.10;99.90;;;;;;4975347;28;20082;-75
2023/11/27 00:32:42;;;;;;;31.45;17.75;;;6.10;99.90;;;;;;4974125;28;20030;-76
2023/11/27 00:35:08;;;;;;;32.42;17.85;;;6.10;99.90;;;;;;4974057;28;20491;-75
2023/11/27 00:37:34;;;;;;;29.15;18.20;;;6.00;99.90;;;;;;4974976;28;20038;-76
2023/11/27 00:40:00;;;;;;;34.92;20.45;;;6.10;99.90;;;;;;4974122;28;20094;-75
2023/11/27 00:42:25;;;;;;;39.67;20.50;;;6.20;99.90;;;;;;4975064;28;20042;-76
2023/11/27 00:44:51;;;;;;;42.15;21.58;;;6.10;99.90;;;;;;4975031;28;20518;-76
2023/11/27 00:47:17;;;;;;;41.53;22.15;;;6.00;99.90;;;;;;4973972;28;20124;-75
2023/11/27 00:49:43;;;;;;;37.28;24.27;;;6.20;99.90;;;;;;4973523;28;20039;-75
2023/11/27 00:52:09;;;;;;;40.75;22.98;;;6.00;99.90;;;;;;4973538;28;20054;-76
2023/11/27 00:54:34;;;;;;;39.88;24.35;;;6.20;99.90;;;;;;4974797;28;20494;-76
2023/11/27 00:57:00;;;;;;;43.53;25.58;;;6.30;99.90;;;;;;4974775;28;20039;-76
2023/11/27 00:59:26;;;;;;;54.30;27.80;;;6.20;99.90;;;;;;4973524;28;20094;-76
2023/11/27 01:01:52;;;;;;;43.60;25.75;;;6.20;99.90;;;;;;4973637;28;20039;-76
2023/11/27 01:04:17;;;;;;;51.75;27.10;;;6.20;99.90;;;;;;4973363;28;20053;-76
2023/11/27 01:06:43;;;;;;;52.20;28.50;;;6.00;99.90;;;;;;4973029;28;20125;-76
2023/11/27 01:09:09;;;;;;;50.90;27.73;;;6.10;99.90;;;;;;4973559;28;20126;-76
2023/11/27 01:11:34;;;;;;;43.47;27.88;;;6.00;99.90;;;;;;4973389;28;20038;-76
2023/11/27 01:14:00;;;;;;;51.78;30.13;;;6.20;99.90;;;;;;4974508;28;20044;-76
2023/11/27 01:16:26;;;;;;;50.63;28.10;;;6.00;99.90;;;;;;4972769;28;20038;-76
2023/11/27 01:18:52;;;;;;;48.90;27.75;;;6.10;99.90;;;;;;4974341;28;20132;-76
2023/11/27 01:21:18;;;;;;;46.03;26.45;;;6.00;99.90;;;;;;4973000;28;20038;-76
2023/11/27 01:23:44;;;;;;;49.85;26.63;;;6.20;99.90;;;;;;4973064;28;20043;-76
2023/11/27 01:26:09;;;;;;;46.03;26.92;;;6.00;99.90;;;;;;4972974;28;20050;-76
2023/11/27 01:28:36;;;;;;;49.22;27.52;;;6.10;99.90;;;;;;4973243;28;20042;-76
2023/11/27 01:31:03;;;;;;;48.97;29.42;;;6.20;99.90;;;;;;4980321;23;20058;-77
2023/11/27 01:33:29;;;;;;;48.03;27.35;;;6.20;99.90;;;;;;4988436;28;20077;-77
2023/11/27 01:35:55;;;;;;;47.88;28.10;;;6.10;99.90;;;;;;4972205;28;20090;-77
2023/11/27 01:38:20;;;;;;;44.15;27.27;;;6.00;99.90;;;;;;4972897;28;20045;-78
2023/11/27 01:40:46;;;;;;;47.97;26.05;;;6.20;99.90;;;;;;4974038;28;20043;-77
2023/11/27 01:43:15;;;;;;;49.25;27.58;;;6.00;99.90;;;;;;4972126;28;20043;-77
2023/11/27 01:45:42;;;;;;;44.60;26.33;;;6.10;99.90;;;;;;4973531;28;20042;-77
2023/11/27 01:48:09;;;;;;;46.45;25.92;;;6.00;99.90;;;;;;4972965;28;20047;-77
2023/11/27 01:50:35;;;;;;;52.50;27.92;;;6.20;99.90;;;;;;4972658;28;20054;-78
2023/11/27 01:53:01;;;;;;;53.50;27.90;;;6.10;99.90;;;;;;4973839;28;20117;-77
2023/11/27 01:55:28;;;;;;;46.40;26.75;;;6.00;99.90;;;;;;4972396;28;20114;-77
2023/11/27 01:57:55;;;;;;;49.20;26.58;;;6.10;99.90;;;;;;4972689;28;20406;-77
2023/11/27 02:00:22;;;;;;;46.58;26.15;;;6.20;99.90;;;;;;4972667;28;20047;-77
2023/11/27 02:02:49;;;;;;;44.88;24.70;;;6.30;99.90;;;;;;4972162;28;20049;-77
2023/11/27 02:05:16;;;;;;;45.25;23.98;;;6.00;99.90;;;;;;4972193;28;20039;-77
2023/11/27 02:07:43;;;;;;;36.13;22.35;;;6.20;99.90;;;;;;4972386;28;20054;-77
2023/11/27 02:10:10;;;;;;;27.25;18.05;;;6.00;99.90;;;;;;4972337;28;20081;-77
2023/11/27 02:12:35;;;;;;;29.83;18.83;;;6.00;99.90;;;;;;4972125;28;20034;-77
2023/11/27 02:15:01;;;;;;;28.02;16.50;;;6.20;99.90;;;;;;4956243;28;20054;-77
2023/11/27 02:17:27;;;;;;;27.45;16.15;;;6.20;99.90;;;;;;4973404;28;20092;-77
2023/11/27 02:19:53;;;;;;;24.65;14.43;;;6.10;99.90;;;;;;4972320;28;20527;-77
2023/11/27 02:22:22;;;;;;;24.08;12.52;;;6.10;99.90;;;;;;4973366;28;20046;-77
2023/11/27 02:24:48;;;;;;;12.65;7.22;;;6.10;99.90;;;;;;4972254;28;20047;-77
2023/11/27 02:27:13;;;;;;;9.30;5.78;;;6.20;99.90;;;;;;4971751;28;20562;-77
2023/11/27 02:29:39;;;;;;;12.98;6.10;;;5.90;99.90;;;;;;4987540;28;20081;-77
2023/11/27 02:32:06;;;;;;;15.60;7.45;;;6.00;99.90;;;;;;4971775;28;20531;-77
2023/11/27 02:34:31;;;;;;;10.82;7.57;;;6.10;99.90;;;;;;4971832;28;20039;-78
2023/11/27 02:36:57;;;;;;;11.48;7.40;;;6.00;99.90;;;;;;4972976;28;20039;-77
2023/11/27 02:39:23;;;;;;;18.77;9.18;;;6.00;99.90;;;;;;4973151;28;20054;-77
2023/11/27 02:41:48;;;;;;;18.75;10.20;;;5.80;99.90;;;;;;4971760;28;20082;-77
2023/11/27 02:44:14;;;;;;;22.23;10.32;;;6.00;99.90;;;;;;4971987;28;20046;-77
2023/11/27 02:46:41;;;;;;;20.45;12.30;;;5.90;99.90;;;;;;4973026;28;20526;-77
2023/11/27 02:49:07;;;;;;;24.88;14.52;;;5.90;99.90;;;;;;4973071;28;20043;-77
2023/11/27 02:51:42;;;;;;;26.15;14.35;;;5.90;99.90;;;;;;4971688;28;20093;-77
2023/11/27 02:54:07;;;;;;;27.10;13.07;;;5.90;99.90;;;;;;4973061;28;20482;-77
2023/11/27 02:56:33;;;;;;;22.58;13.43;;;5.80;99.90;;;;;;4971660;28;20085;-77
2023/11/27 02:58:59;;;;;;;22.33;13.27;;;5.80;99.90;;;;;;4972925;28;20709;-76
2023/11/27 03:01:28;;;;;;;25.75;14.60;;;5.90;99.90;;;;;;4971678;28;20100;-77
2023/11/27 03:03:55;;;;;;;27.92;14.55;;;5.90;99.90;;;;;;4971862;28;20038;-77
2023/11/27 03:06:20;;;;;;;27.70;16.48;;;5.90;99.90;;;;;;4972641;28;20039;-77
2023/11/27 03:08:46;;;;;;;27.70;14.82;;;5.90;99.90;;;;;;4971506;28;20065;-77
2023/11/27 03:11:12;;;;;;;26.83;14.95;;;5.90;99.90;;;;;;4972563;28;20039;-78
2023/11/27 03:13:39;;;;;;;29.17;16.10;;;6.00;99.90;;;;;;4971817;28;20137;-77
2023/11/27 03:16:05;;;;;;;27.98;14.20;;;5.90;99.90;;;;;;4971334;28;20053;-77
2023/11/27 03:18:30;;;;;;;26.80;15.57;;;5.90;99.90;;;;;;4972773;28;20043;-77
2023/11/27 03:20:57;;;;;;;25.30;15.20;;;6.00;99.90;;;;;;4972677;28;20039;-77
2023/11/27 03:23:24;;;;;;;22.15;12.65;;;5.90;99.90;;;;;;4972702;28;20054;-77
2023/11/27 03:25:50;;;;;;;21.88;13.40;;;6.00;99.90;;;;;;4971337;28;20047;-77
2023/11/27 03:28:16;;;;;;;22.58;14.27;;;5.90;99.90;;;;;;4972651;28;20050;-77
2023/11/27 03:30:42;;;;;;;23.23;13.68;;;6.00;99.90;;;;;;4971366;28;20035;-77
2023/11/27 03:33:08;;;;;;;24.92;15.15;;;5.90;99.90;;;;;;4972400;28;20518;-77
2023/11/27 03:35:33;;;;;;;27.02;15.32;;;6.00;99.90;;;;;;4972342;28;20133;-77
2023/11/27 03:37:59;;;;;;;23.20;14.23;;;6.00;99.90;;;;;;4972587;28;20105;-78
2023/11/27 03:40:25;;;;;;;23.67;15.07;;;5.90;99.90;;;;;;4971342;28;20051;-78
2023/11/27 03:42:50;;;;;;;28.95;16.73;;;5.90;99.90;;;;;;4974898;28;20459;-78
2023/11/27 03:45:16;;;;;;;24.38;14.90;;;5.90;99.90;;;;;;4974679;28;20047;-79
2023/11/27 03:47:42;;;;;;;21.58;14.60;;;5.90;99.90;;;;;;4976206;28;20043;-77
2023/11/27 03:50:08;;;;;;;24.42;15.20;;;6.00;99.90;;;;;;4976069;28;20043;-77
2023/11/27 03:52:33;;;;;;;22.77;14.50;;;5.80;99.90;;;;;;4974727;28;20512;-77
2023/11/27 03:54:59;;;;;;;23.95;14.38;;;5.90;99.90;;;;;;4975780;28;20039;-77
2023/11/27 03:57:25;;;;;;;27.65;14.48;;;5.80;99.90;;;;;;4974571;28;20096;-78
2023/11/27 03:59:50;;;;;;;23.13;13.77;;;5.70;99.90;;;;;;4974705;28;20465;-77
2023/11/27 04:02:17;;;;;;;20.88;13.68;;;5.90;99.90;;;;;;4975833;28;20099;-77
2023/11/27 04:04:43;;;;;;;20.02;12.57;;;5.80;99.90;;;;;;4974586;28;20093;-78
2023/11/27 04:07:09;;;;;;;22.35;13.38;;;5.80;99.90;;;;;;4975525;28;20035;-78
2023/11/27 04:09:34;;;;;;;22.33;13.05;;;5.80;99.90;;;;;;4975632;28;20050;-77
2023/11/27 04:12:00;;;;;;;20.98;13.23;;;5.70;99.90;;;;;;4975764;28;20045;-77
2023/11/27 04:14:26;;;;;;;19.17;12.23;;;5.70;99.90;;;;;;4974606;28;20035;-77
2023/11/27 04:16:52;;;;;;;17.83;12.38;;;5.60;99.90;;;;;;4975447;28;20045;-77
2023/11/27 04:19:19;;;;;;;17.45;11.82;;;5.70;99.90;;;;;;4974259;28;20418;-77
2023/11/27 04:21:44;;;;;;;18.42;11.48;;;5.70;99.90;;;;;;4974164;28;20047;-77
2023/11/27 04:24:10;;;;;;;17.25;10.82;;;5.60;99.90;;;;;;4970876;28;20053;-77
2023/11/27 04:26:36;;;;;;;13.43;9.27;;;5.70;99.90;;;;;;4969860;28;20391;-77
2023/11/27 04:29:02;;;;;;;13.73;9.30;;;5.70;99.90;;;;;;4971668;28;20039;-77
2023/11/27 04:31:28;;;;;;;13.75;8.65;;;5.40;99.90;;;;;;4973840;28;20038;-77
2023/11/27 04:33:54;;;;;;;13.27;7.68;;;5.40;99.90;;;;;;4974090;28;20465;-77
2023/11/27 04:36:19;;;;;;;10.00;7.53;;;5.50;99.90;;;;;;4975008;28;20039;-77
2023/11/27 04:38:45;;;;;;;8.05;6.03;;;5.30;99.90;;;;;;4973954;28;20055;-77
2023/11/27 04:41:10;;;;;;;9.43;6.38;;;5.40;99.90;;;;;;4975110;28;20047;-77
2023/11/27 04:43:36;;;;;;;10.32;6.32;;;5.40;99.90;;;;;;4975248;28;20047;-77
2023/11/27 04:46:02;;;;;;;10.13;5.60;;;5.40;99.90;;;;;;4974878;28;20122;-78
2023/11/27 04:48:27;;;;;;;10.18;7.10;;;5.30;99.90;;;;;;4973732;28;20043;-77
2023/11/27 04:50:53;;;;;;;9.48;6.10;;;5.20;99.90;;;;;;4973620;28;20050;-77
2023/11/27 04:53:19;;;;;;;8.27;5.75;;;5.20;99.90;;;;;;4957247;28;20112;-77
2023/11/27 04:55:44;;;;;;;7.38;5.60;;;5.20;99.90;;;;;;4973336;28;20046;-77
2023/11/27 04:58:10;;;;;;;8.15;6.13;;;5.30;99.90;;;;;;4973605;28;20047;-77
2023/11/27 05:00:35;;;;;;;8.52;5.65;;;5.30;99.90;;;;;;4974761;28;20174;-79
2023/11/27 05:03:01;;;;;;;6.65;5.03;;;5.10;99.90;;;;;;4973508;28;20039;-76
2023/11/27 05:05:27;;;;;;;6.75;4.75;;;5.00;99.90;;;;;;4974663;28;20481;-78
2023/11/27 05:07:52;;;;;;;7.47;4.90;;;5.20;99.90;;;;;;4974546;28;20499;-76
2023/11/27 05:10:18;;;;;;;5.68;4.35;;;5.00;99.90;;;;;;4974634;28;20043;-76
2023/11/27 05:12:45;;;;;;;7.78;4.85;;;5.10;99.90;;;;;;4973220;28;20039;-76
2023/11/27 05:15:11;;;;;;;7.93;4.88;;;4.90;99.90;;;;;;4973130;28;20410;-76
2023/11/27 05:17:36;;;;;;;5.57;4.32;;;5.10;99.90;;;;;;4973232;28;20035;-77
2023/11/27 05:20:03;;;;;;;7.53;4.75;;;5.00;99.90;;;;;;4957190;28;20048;-76
2023/11/27 05:22:29;;;;;;;6.47;4.63;;;5.00;99.90;;;;;;4973384;28;20545;-76
2023/11/27 05:24:55;;;;;;;6.80;4.60;;;5.00;99.90;;;;;;4973277;28;20117;-76
2023/11/27 05:27:21;;;;;;;6.13;4.60;;;4.90;99.90;;;;;;4973287;28;20047;-76
2023/11/27 05:29:47;;;;;;;6.88;4.88;;;4.90;99.90;;;;;;4973219;28;20466;-76
2023/11/27 05:32:12;;;;;;;6.28;4.72;;;5.00;99.90;;;;;;4973015;28;20044;-77
2023/11/27 05:34:38;;;;;;;6.30;4.72;;;4.90;99.90;;;;;;4974223;28;20486;-76
2023/11/27 05:37:08;;;;;;;5.75;4.53;;;4.70;99.90;;;;;;4973898;28;20200;-76
2023/11/27 05:39:40;;;;;;;7.10;4.70;;;4.90;99.90;;;;;;4972941;28;20078;-76
2023/11/27 05:42:11;;;;;;;7.38;4.45;;;4.70;99.90;;;;;;4956858;28;20085;-77
2023/11/27 05:44:40;;;;;;;6.75;4.55;;;4.80;99.90;;;;;;4972999;28;20043;-76
2023/11/27 05:47:05;;;;;;;5.45;4.30;;;4.90;99.90;;;;;;4973709;28;20101;-76
2023/11/27 05:49:31;;;;;;;5.55;4.47;;;4.70;99.90;;;;;;4973753;28;20410;-77
2023/11/27 05:51:57;;;;;;;5.03;3.50;;;4.80;99.90;;;;;;4972493;28;20050;-77
2023/11/27 05:54:24;;;;;;;4.47;3.80;;;4.80;99.90;;;;;;4973939;28;20035;-76
2023/11/27 05:56:50;;;;;;;5.03;4.30;;;4.70;99.90;;;;;;4972313;28;20034;-76
2023/11/27 05:59:16;;;;;;;5.13;3.78;;;4.60;99.90;;;;;;4973698;28;20045;-77
2023/11/27 06:01:42;;;;;;;5.43;4.03;;;4.70;99.90;;;;;;4972476;28;20039;-76
2023/11/27 06:04:08;;;;;;;6.28;3.40;;;4.70;99.90;;;;;;4971562;28;20042;-76
2023/11/27 06:06:34;;;;;;;6.07;3.92;;;4.60;99.90;;;;;;4973538;28;20042;-76
2023/11/27 06:08:59;;;;;;;5.63;3.95;;;4.50;99.90;;;;;;4973666;28;20129;-77
2023/11/27 06:11:25;;;;;;;4.90;4.07;;;4.60;99.90;;;;;;4972057;28;20045;-77
2023/11/27 06:13:51;;;;;;;5.07;3.72;;;4.50;99.90;;;;;;4973503;28;20058;-77
2023/11/27 06:16:16;;;;;;;5.82;3.92;;;4.40;99.90;;;;;;4972055;28;20337;-78
2023/11/27 06:18:42;;;;;;;5.38;3.95;;;4.60;99.90;;;;;;4972005;28;20562;-77
2023/11/27 06:21:10;;;;;;;5.03;4.18;;;4.50;99.90;;;;;;4973481;28;20067;-77
2023/11/27 06:23:35;;;;;;;5.35;4.10;;;4.50;99.90;;;;;;4973486;28;20053;-77
2023/11/27 06:26:01;;;;;;;6.32;4.28;;;4.40;99.90;;;;;;4971659;28;20039;-76
2023/11/27 06:28:27;;;;;;;5.38;4.55;;;4.50;99.90;;;;;;4971798;28;20085;-77
2023/11/27 06:30:52;;;;;;;4.13;3.65;;;4.40;99.90;;;;;;4971818;28;20047;-77
2023/11/27 06:33:18;;;;;;;5.82;4.18;;;4.30;99.90;;;;;;4971713;28;20043;-76
2023/11/27 06:35:44;;;;;;;5.75;4.40;;;4.40;99.90;;;;;;4971684;28;20038;-77
2023/11/27 06:38:10;;;;;;;5.15;4.35;;;4.40;99.90;;;;;;4971855;28;20043;-76
2023/11/27 06:40:36;;;;;;;4.72;4.00;;;4.50;99.90;;;;;;4972120;28;20070;-77
2023/11/27 06:43:02;;;;;;;5.75;4.10;;;4.40;99.90;;;;;;4971763;28;20495;-76
2023/11/27 06:45:27;;;;;;;6.07;4.20;;;4.30;99.90;;;;;;4984224;28;20046;-76
2023/11/27 06:47:53;;;;;;;4.60;3.80;;;4.40;99.90;;;;;;4971919;28;20130;-77
2023/11/27 06:50:20;;;;;;;5.43;4.20;;;4.30;99.90;;;;;;4973135;28;20042;-76
2023/11/27 06:52:49;;;;;;;4.68;4.15;;;4.40;99.90;;;;;;4972011;28;20118;-77
2023/11/27 06:55:15;;;;;;;4.95;4.05;;;4.30;99.90;;;;;;4972674;28;20039;-73
2023/11/27 06:57:41;;;;;;;5.55;3.65;;;4.30;99.90;;;;;;4972741;28;20046;-73
2023/11/27 07:00:10;;;;;;;4.43;3.38;;;4.20;99.90;;;;;;4972866;28;20042;-73
2023/11/27 07:02:36;;;;;;;5.50;3.70;;;4.20;99.90;;;;;;4972715;28;20043;-74
2023/11/27 07:05:03;;;;;;;4.95;4.22;;;4.20;99.90;;;;;;4972665;28;20070;-73
2023/11/27 07:07:28;;;;;;;5.55;4.43;;;4.20;99.90;;;;;;4972768;28;20511;-74
2023/11/27 07:09:56;;;;;;;5.25;4.38;;;4.00;99.90;;;;;;4972700;28;20053;-73
2023/11/27 07:12:22;;;;;;;5.70;4.40;;;4.00;99.90;;;;;;4972765;28;20035;-74
2023/11/27 07:14:48;;;;;;;5.88;4.40;;;4.20;99.90;;;;;;4973309;28;20043;-73
2023/11/27 07:17:17;;;;;;;4.85;3.97;;;4.00;99.90;;;;;;4976676;28;20039;-74
2023/11/27 07:19:43;;;;;;;6.85;5.18;;;4.00;99.90;;;;;;4976773;28;20038;-74
2023/11/27 07:22:09;;;;;;;6.18;4.90;;;4.10;99.90;;;;;;4976524;28;20581;-74
2023/11/27 07:24:35;;;;;;;8.25;4.95;;;4.00;99.90;;;;;;4975476;28;20574;-73
2023/11/27 07:27:02;;;;;;;6.47;5.30;;;3.90;99.90;;;;;;4976278;28;20117;-74
2023/11/27 07:29:28;;;;;;;7.75;5.40;;;4.00;99.90;;;;;;4976287;28;20054;-73
2023/11/27 07:31:54;;;;;;;7.30;5.50;;;4.00;99.90;;;;;;4995684;23;20042;-81
2023/11/27 07:34:21;;;;;;;7.18;5.80;;;3.90;99.90;;;;;;4998618;28;20125;-83
2023/11/27 07:36:47;;;;;;;7.95;5.68;;;4.00;99.90;;;;;;4999538;28;20117;-83
2023/11/27 07:39:13;;;;;;;8.80;5.95;;;3.90;99.90;;;;;;4999018;28;20478;-82
2023/11/27 07:41:38;;;;;;;9.60;6.28;;;3.90;99.90;;;;;;4982331;28;20123;-82
2023/11/27 07:44:05;;;;;;;7.55;5.43;;;3.90;99.90;;;;;;4998574;28;20512;-82
2023/11/27 07:46:31;;;;;;;7.72;6.07;;;3.90;99.90;;;;;;4983561;28;20089;-83
2023/11/27 07:48:56;;;;;;;7.35;6.03;;;4.00;99.90;;;;;;4983344;28;20041;-82
2023/11/27 07:51:22;;;;;;;10.48;6.93;;;3.90;99.90;;;;;;4999945;28;20125;-82
2023/11/27 07:53:48;;;;;;;8.55;6.18;;;3.80;99.90;;;;;;5000523;28;20035;-84
2023/11/27 07:56:23;;;;;;;10.50;6.65;;;3.80;99.90;;;;;;4998776;28;20042;-81
2023/11/27 07:58:49;;;;;;;9.00;6.72;;;3.90;99.90;;;;;;4999322;28;20038;-81
2023/11/27 08:01:16;;;;;;;10.77;7.35;;;3.80;99.90;;;;;;4999032;28;20068;-83
2023/11/27 08:03:42;;;;;;;10.98;7.07;;;3.80;99.90;;;;;;4999872;28;20038;-81
2023/11/27 08:06:09;;;;;;;9.18;7.60;;;3.80;99.90;;;;;;4999385;28;20047;-82
2023/11/27 08:08:34;;;;;;;10.23;8.07;;;3.90;99.90;;;;;;4999489;28;20068;-82
2023/11/27 08:11:00;;;;;;;11.50;8.20;;;3.80;99.90;;;;;;4999313;28;20525;-83
2023/11/27 08:13:26;;;;;;;11.20;7.90;;;3.70;99.90;;;;;;5000329;28;20042;-82
2023/11/27 08:15:53;;;;;;;11.95;8.45;;;3.90;99.90;;;;;;4984236;28;20034;-81
2023/11/27 08:18:19;;;;;;;12.23;9.05;;;3.80;99.90;;;;;;5001306;28;20555;-83
2023/11/27 08:20:45;;;;;;;13.38;8.82;;;3.90;99.90;;;;;;4986019;28;20050;-82
2023/11/27 08:23:12;;;;;;;14.05;9.95;;;3.90;99.90;;;;;;4986225;28;20045;-83
2023/11/27 08:25:41;;;;;;;12.68;8.55;;;4.00;99.90;;;;;;5001695;28;20050;-83
2023/11/27 08:28:07;;;;;;;13.38;9.60;;;3.80;99.90;;;;;;4983179;28;20046;-82
2023/11/27 08:30:33;;;;;;;11.35;8.38;;;3.80;99.90;;;;;;4968582;28;20035;-82
2023/11/27 08:33:00;;;;;;;12.75;9.00;;;3.90;99.90;;;;;;4998855;28;20046;-82
2023/11/27 08:35:27;;;;;;;15.15;9.98;;;3.80;99.90;;;;;;5000211;28;20038;-81
2023/11/27 08:37:53;;;;;;;13.38;9.93;;;3.90;99.90;;;;;;4981183;28;20065;-81
2023/11/27 08:40:20;;;;;;;16.00;11.02;;;4.10;99.90;;;;;;4997468;28;20105;-81
2023/11/27 08:42:45;;;;;;;15.35;10.38;;;4.00;99.90;;;;;;4981856;28;20042;-82
2023/11/27 08:45:16;;;;;;;14.90;10.88;;;3.90;99.90;;;;;;4999015;28;20034;-81
2023/11/27 08:47:51;;;;;;;15.65;11.25;;;4.20;99.90;;;;;;4997541;28;20038;-81
2023/11/27 08:50:27;;;;;;;16.60;11.73;;;4.00;99.90;;;;;;4998497;28;20049;-81
2023/11/27 08:52:59;;;;;;;16.60;11.13;;;4.10;99.90;;;;;;4981787;28;20043;-81
2023/11/27 08:55:32;;;;;;;16.35;11.43;;;4.10;99.90;;;;;;4982085;28;20045;-81
2023/11/27 08:58:01;;;;;;;16.73;11.70;;;4.20;99.90;;;;;;4998080;28;20528;-81
2023/11/27 09:00:29;;;;;;;14.85;10.45;;;4.20;99.90;;;;;;4988610;28;20046;-81
2023/11/27 09:02:59;;;;;;;13.93;10.48;;;4.10;99.90;;;;;;4993081;28;20097;-81
2023/11/27 09:05:34;;;;;;;17.08;11.00;;;4.00;99.90;;;;;;4999757;28;20421;-81
2023/11/27 09:08:04;;;;;;;15.73;11.35;;;4.30;99.90;;;;;;5005394;28;20378;-81
2023/11/27 09:10:31;;;;;;;17.40;11.27;;;4.10;99.90;;;;;;4984706;28;20042;-81
2023/11/27 09:12:56;;;;;;;15.82;11.63;;;4.20;99.90;;;;;;5001347;28;20050;-81
2023/11/27 09:15:22;;;;;;;17.17;12.07;;;4.10;99.90;;;;;;5001303;28;20034;-81
2023/11/27 09:17:48;;;;;;;16.55;11.27;;;4.30;99.90;;;;;;5000558;28;20066;-81
2023/11/27 09:20:15;;;;;;;17.33;11.70;;;4.30;99.90;;;;;;5000103;28;20415;-82
2023/11/27 09:22:40;;;;;;;17.77;12.30;;;4.30;99.90;;;;;;4999755;28;20047;-81
2023/11/27 09:25:12;;;;;;;17.70;11.95;;;4.30;99.90;;;;;;4998777;28;20509;-81
2023/11/27 09:27:39;;;;;;;18.88;12.80;;;4.20;99.90;;;;;;4982459;28;20536;-81
2023/11/27 09:30:07;;;;;;;16.90;11.95;;;4.20;99.90;;;;;;4999800;28;20176;-81
2023/11/27 09:32:33;;;;;;;19.05;13.15;;;4.40;99.90;;;;;;4983512;28;20053;-81
2023/11/27 09:34:58;;;;;;;18.65;12.77;;;4.40;99.90;;;;;;4996814;28;20034;-81
2023/11/27 09:37:25;;;;;;;17.13;12.57;;;4.40;99.90;;;;;;4995133;28;20490;-81
2023/11/27 09:39:53;;;;;;;18.80;12.60;;;4.50;99.90;;;;;;4979293;28;20098;-81
2023/11/27 09:42:19;;;;;;;17.15;12.07;;;4.30;99.90;;;;;;4996779;28;20527;-81
2023/11/27 09:44:45;;;;;;;17.77;11.18;;;4.30;99.90;;;;;;4995825;28;20053;-81
2023/11/27 09:47:12;;;;;;;17.55;12.15;;;4.50;99.90;;;;;;4995884;28;20089;-80
2023/11/27 09:49:50;;;;;;;21.08;13.00;;;4.60;99.90;;;;;;4979527;28;20097;-82
2023/11/27 09:52:20;;;;;;;19.13;12.88;;;4.60;99.90;;;;;;5002205;28;20046;-84
2023/11/27 09:54:51;;;;;;;18.55;12.18;;;4.40;99.90;;;;;;4985473;28;20031;-82
2023/11/27 09:57:17;;;;;;;19.60;13.45;;;4.50;99.90;;;;;;4998406;28;20038;-83
2023/11/27 09:59:43;;;;;;;16.02;11.30;;;4.40;99.90;;;;;;4980749;28;20417;-83
2023/11/27 10:02:10;;;;;;;17.88;12.02;;;4.60;99.90;;;;;;4999665;28;20043;-83
2023/11/27 10:04:36;;;;;;;18.92;12.38;;;4.40;99.90;;;;;;4999742;28;20109;-82
2023/11/27 10:07:02;;;;;;;17.70;11.52;;;4.60;99.90;;;;;;5000272;28;20131;-83
2023/11/27 10:09:27;;;;;;;18.70;12.82;;;4.50;99.90;;;;;;4983149;28;20071;-82
2023/11/27 10:12:00;;;;;;;17.73;11.98;;;4.50;99.90;;;;;;4997650;28;20037;-82
2023/11/27 10:14:27;;;;;;;19.98;12.85;;;4.50;99.90;;;;;;4979420;28;20097;-82
2023/11/27 10:16:58;;;;;;;18.35;11.80;;;4.50;99.90;;;;;;4979601;28;20030;-82
2023/11/27 10:19:25;;;;;;;18.92;12.27;;;4.50;99.90;;;;;;4994936;28;20045;-83
2023/11/27 10:21:51;;;;;;;17.90;11.70;;;4.60;99.90;;;;;;4980680;28;20061;-82
2023/11/27 10:24:17;;;;;;;15.73;10.93;;;4.50;99.90;;;;;;4998348;28;20034;-81
2023/11/27 10:26:44;;;;;;;17.45;12.13;;;4.70;99.90;;;;;;4980642;28;20130;-82
2023/11/27 10:29:25;;;;;;;17.52;11.00;;;4.50;99.90;;;;;;4979685;28;20034;-81
2023/11/27 10:32:00;;;;;;;15.18;10.35;;;4.50;99.90;;;;;;4994970;28;20513;-82
2023/11/27 10:34:29;;;;;;;17.92;11.77;;;4.60;99.90;;;;;;4996401;28;20038;-82
2023/11/27 10:36:57;;;;;;;16.00;11.85;;;4.80;99.90;;;;;;4979164;28;20053;-83
2023/11/27 10:39:25;;;;;;;17.42;11.88;;;4.70;99.90;;;;;;4979922;28;20045;-82
2023/11/27 10:41:55;;;;;;;15.40;10.85;;;4.70;99.90;;;;;;4980545;28;20118;-83
2023/11/27 10:44:22;;;;;;;14.85;11.10;;;4.60;99.90;;;;;;4998234;28;20038;-80
2023/11/27 10:46:50;;;;;;;13.75;9.95;;;4.70;99.90;;;;;;4998986;28;20544;-81
2023/11/27 10:49:16;;;;;;;12.90;9.80;;;4.60;99.90;;;;;;4996244;28;20038;-81
2023/11/27 10:51:45;;;;;;;14.68;10.65;;;4.60;99.90;;;;;;4997830;28;20034;-83
2023/11/27 10:54:14;;;;;;;15.50;10.93;;;4.70;99.90;;;;;;4998941;28;20441;-82
2023/11/27 10:56:46;;;;;;;13.73;9.90;;;4.70;99.90;;;;;;4999503;28;20092;-80
2023/11/27 10:59:14;;;;;;;15.65;11.10;;;4.60;99.90;;;;;;4997367;28;20050;-81
2023/11/27 11:01:45;;;;;;;16.40;11.05;;;4.60;99.90;;;;;;4999086;28;20122;-81
2023/11/27 11:04:20;;;;;;;13.75;10.18;;;4.60;99.90;;;;;;4996127;28;20038;-81
2023/11/27 11:06:51;;;;;;;13.75;9.10;;;4.50;99.90;;;;;;4996745;28;20046;-81
2023/11/27 11:09:22;;;;;;;12.30;9.63;;;4.50;99.90;;;;;;4995169;28;20084;-81
2023/11/27 11:11:52;;;;;;;12.48;9.50;;;4.50;99.90;;;;;;4995641;28;20061;-83
2023/11/27 11:14:19;;;;;;;13.07;9.30;;;4.50;99.90;;;;;;4981077;28;20490;-82
2023/11/27 11:17:07;;;;;;;11.13;8.75;;;4.40;99.90;;;;;;4998480;28;20038;-80
2023/11/27 11:20:01;;;;;;;11.65;8.75;;;4.30;99.90;;;;;;4999443;28;20113;-82
2023/11/27 11:22:32;;;;;;;11.65;8.73;;;4.30;99.90;;;;;;5000802;28;20042;-82
2023/11/27 11:25:31;;;;;;;15.02;9.80;;;4.50;99.90;;;;;;4994010;28;20045;-81
2023/11/27 11:28:36;;;;;;;14.38;9.63;;;4.40;99.90;;;;;;4993810;28;20502;-80
2023/11/27 11:31:15;;;;;;;11.70;8.70;;;4.40;99.90;;;;;;4987279;28;20109;-82
2023/11/27 11:33:41;;;;;;;11.77;7.75;;;4.40;99.90;;;;;;4996761;28;20080;-82
2023/11/27 11:36:12;;;;;;;10.60;8.45;;;4.30;99.90;;;;;;4993630;28;20434;-79
2023/11/27 11:38:44;;;;;;;11.50;8.15;;;4.40;99.90;;;;;;4976859;28;20042;-79
2023/11/27 11:41:10;;;;;;;11.85;8.52;;;4.40;99.90;;;;;;4990525;28;20042;-80
2023/11/27 11:43:42;;;;;;;10.88;8.15;;;4.30;99.90;;;;;;4975739;28;20044;-79
2023/11/27 11:46:18;;;;;;;12.02;8.27;;;4.30;99.90;;;;;;4989954;28;20038;-79
2023/11/27 11:48:52;;;;;;;10.25;7.57;;;4.40;99.90;;;;;;4980696;28;20093;-79
2023/11/27 11:51:20;;;;;;;10.48;7.82;;;4.30;99.90;;;;;;4992563;28;20050;-80
2023/11/27 11:53:47;;;;;;;9.50;7.18;;;4.40;99.90;;;;;;4980314;28;20134;-80
2023/11/27 11:56:19;;;;;;;8.65;6.55;;;4.20;99.90;;;;;;4984102;28;20066;-80
2023/11/27 11:58:46;;;;;;;8.60;6.55;;;4.20;99.90;;;;;;4998697;28;20104;-82
2023/11/27 12:01:14;;;;;;;8.00;5.93;;;4.40;99.90;;;;;;4993896;28;20081;-81
2023/11/27 12:03:46;;;;;;;8.45;6.05;;;4.10;99.90;;;;;;4995384;28;20043;-79
2023/11/27 12:06:15;;;;;;;7.15;5.90;;;4.20;99.90;;;;;;4980647;28;20045;-79
2023/11/27 12:08:49;;;;;;;6.80;5.68;;;4.30;99.90;;;;;;4978839;28;20046;-79
2023/11/27 12:11:15;;;;;;;7.65;5.50;;;4.20;99.90;;;;;;4998875;28;20060;-79
2023/11/27 12:13:43;;;;;;;8.07;6.18;;;4.20;99.90;;;;;;4995473;28;20098;-80
2023/11/27 12:16:11;;;;;;;9.50;6.80;;;4.10;99.90;;;;;;5001989;28;20552;-75
2023/11/27 12:18:44;;;;;;;9.52;7.45;;;4.30;99.90;;;;;;4999835;28;20038;-75
2023/11/27 12:21:16;;;;;;;9.10;6.28;;;4.20;99.90;;;;;;4996908;28;20042;-75
2023/11/27 12:23:44;;;;;;;7.65;5.70;;;4.40;99.90;;;;;;4996287;28;20038;-75
2023/11/27 12:26:16;;;;;;;7.43;5.60;;;4.30;99.90;;;;;;4981039;28;20128;-76
2023/11/27 12:28:48;;;;;;;8.13;5.75;;;4.30;99.90;;;;;;4983526;28;20506;-75
2023/11/27 12:31:16;;;;;;;8.15;6.18;;;4.40;99.90;;;;;;4979485;28;20478;-75
2023/11/27 12:33:43;;;;;;;7.10;5.47;;;4.40;99.90;;;;;;4999730;28;20035;-76
2023/11/27 12:36:10;;;;;;;7.90;5.30;;;4.50;99.90;;;;;;4982961;28;20038;-75
2023/11/27 12:38:36;;;;;;;6.70;4.72;;;4.50;99.90;;;;;;4999970;28;20117;-75
2023/11/27 12:41:09;;;;;;;6.72;5.50;;;4.30;99.90;;;;;;4983814;28;20050;-75
2023/11/27 12:43:36;;;;;;;8.20;5.78;;;4.30;99.90;;;;;;4979904;28;20457;-75
2023/11/27 12:46:05;;;;;;;8.25;4.43;;;4.40;99.90;;;;;;4999606;28;20038;-75